createdAt,value
2022-11-22T00:02:06.133Z,4.2
2022-11-22T00:07:06.112Z,4.4
2022-11-22T00:12:16.266Z,4.1
2022-11-22T00:17:16.344Z,4.1
2022-11-22T00:23:05.822Z,4.3
2022-11-22T00:28:06.030Z,4.4
2022-11-22T00:33:06.098Z,4.3
2022-11-22T00:38:16.314Z,4.2
2022-11-22T00:44:06.045Z,4.3
2022-11-22T00:49:16.104Z,4.3
2022-11-22T00:54:16.367Z,4.3
2022-11-22T01:00:06.024Z,4.4
2022-11-22T01:05:06.112Z,4.4
2022-11-22T01:10:16.372Z,4.5
2022-11-22T01:16:05.968Z,4.4
2022-11-22T01:21:16.076Z,4.6
2022-11-22T01:26:16.091Z,4.7
2022-11-22T01:32:05.809Z,4.7
2022-11-22T01:37:06.075Z,4.7
2022-11-22T01:42:16.309Z,4.9
2022-11-22T01:47:16.315Z,4.8
2022-11-22T01:53:06.028Z,4.8
2022-11-22T01:58:16.311Z,4.9
2022-11-22T02:04:05.982Z,5
2022-11-22T02:09:06.018Z,4.9
2022-11-22T02:14:06.006Z,4.8
2022-11-22T02:19:05.993Z,4.8
2022-11-22T02:24:16.285Z,4.8
2022-11-22T02:30:05.973Z,4.8
2022-11-22T02:35:16.078Z,4.6
2022-11-22T02:40:16.165Z,4.5
2022-11-22T02:45:16.276Z,4.3
2022-11-22T02:51:05.820Z,4.4
2022-11-22T02:56:06.037Z,4.4
2022-11-22T03:01:16.319Z,4.5
2022-11-22T03:06:16.279Z,4.5
2022-11-22T03:11:16.342Z,4.4
2022-11-22T03:16:16.322Z,4.3
2022-11-22T03:22:05.998Z,4.1
2022-11-22T03:27:16.324Z,4.1
2022-11-22T03:32:16.284Z,3.9
2022-11-22T03:38:05.989Z,3.8
2022-11-22T03:43:16.403Z,3.9
2022-11-22T03:49:05.785Z,3.7
2022-11-22T03:54:16.127Z,3.7
2022-11-22T04:00:05.744Z,3.6
2022-11-22T04:05:05.801Z,3.7
2022-11-22T04:10:19.257Z,3.7
2022-11-22T04:15:16.112Z,3.7
2022-11-22T04:21:05.783Z,3.5
2022-11-22T04:26:05.884Z,3.5
2022-11-22T04:31:16.166Z,3.5
2022-11-22T04:36:16.095Z,3.5
2022-11-22T04:42:05.768Z,3.5
2022-11-22T04:47:05.842Z,3.3
2022-11-22T04:52:05.846Z,3.2
2022-11-22T04:57:16.081Z,3.1
2022-11-22T05:02:16.113Z,3.1
2022-11-22T05:08:05.961Z,3.1
2022-11-22T05:13:05.977Z,3.1
2022-11-22T05:18:06.035Z,2.7
2022-11-22T05:23:06.025Z,2.6
2022-11-22T05:28:16.264Z,2.6
2022-11-22T05:34:06.025Z,2.6
2022-11-22T05:39:15.982Z,2.7
2022-11-22T05:44:16.099Z,2.6
2022-11-22T05:49:16.453Z,2.6
2022-11-22T05:55:05.965Z,2.5
2022-11-22T06:00:05.961Z,2.4
2022-11-22T06:05:16.311Z,2.5
2022-11-22T06:11:05.781Z,2.8
2022-11-22T06:16:05.980Z,3.3
2022-11-22T06:21:06.030Z,3.5
2022-11-22T06:26:16.251Z,3.2
2022-11-22T06:32:05.985Z,2.9
2022-11-22T06:37:16.275Z,2.7
2022-11-22T06:42:16.266Z,2.7
2022-11-22T06:48:06.079Z,2.4
2022-11-22T06:53:06.116Z,2.5
2022-11-22T06:58:06.145Z,2.5
2022-11-22T07:03:16.101Z,2.8
2022-11-22T07:09:05.811Z,2.9
2022-11-22T07:14:08.664Z,3
2022-11-22T07:19:06.030Z,3.1
2022-11-22T07:24:16.394Z,3
2022-11-22T07:30:06.047Z,3
2022-11-22T07:35:12.124Z,3
2022-11-22T07:40:16.276Z,3
2022-11-22T07:45:16.248Z,3
2022-11-22T07:50:16.289Z,2.9
2022-11-22T07:56:06.084Z,2.9
2022-11-22T08:01:06.201Z,3.1
2022-11-22T08:06:16.259Z,3
2022-11-22T08:12:06.054Z,3.3
2022-11-22T08:17:05.957Z,3.1
2022-11-22T08:22:05.965Z,3.1
2022-11-22T08:27:16.340Z,3.2
2022-11-22T08:32:16.267Z,3.3
2022-11-22T08:38:05.761Z,3.5
2022-11-22T08:43:16.376Z,3.4
2022-11-22T08:48:21.847Z,3.3
2022-11-22T08:54:05.990Z,3.4
2022-11-22T08:59:06.131Z,3.4
2022-11-22T09:04:06.120Z,3.4
2022-11-22T09:09:46.478Z,3.5
2022-11-22T09:15:06.161Z,3.6
2022-11-22T09:20:16.267Z,3.3
2022-11-22T09:26:05.973Z,3.4
2022-11-22T09:31:06.182Z,3.4
2022-11-22T09:36:16.222Z,3.3
2022-11-22T09:42:06.012Z,3.3
2022-11-22T09:47:06.159Z,3.4
2022-11-22T09:52:16.232Z,3.3
2022-11-22T09:58:05.851Z,3.3
2022-11-22T10:03:06.024Z,3.5
2022-11-22T10:08:05.945Z,3.1
2022-11-22T10:13:16.094Z,3.2
2022-11-22T10:19:05.930Z,3.5
2022-11-22T10:24:16.099Z,3.3
2022-11-22T10:30:05.777Z,3.5
2022-11-22T10:35:16.130Z,3.3
2022-11-22T10:41:05.753Z,3.5
2022-11-22T10:46:16.078Z,3.3
2022-11-22T10:52:05.792Z,3.1
2022-11-22T10:57:05.770Z,3.7
2022-11-22T11:02:16.328Z,3.3
2022-11-22T11:08:36.674Z,3.3
2022-11-22T11:13:16.026Z,3.6
2022-11-22T11:18:16.146Z,3.7
2022-11-22T11:24:16.122Z,3.6
2022-11-22T11:29:16.183Z,3.7
2022-11-22T11:34:16.209Z,3.9
2022-11-22T11:39:16.256Z,3.6
2022-11-22T11:45:06.038Z,3.5
2022-11-22T11:50:05.974Z,3.4
2022-11-22T11:55:16.222Z,3.5
2022-11-22T12:00:16.326Z,3.6
2022-11-22T12:06:05.761Z,3.7
2022-11-22T12:11:05.945Z,3.8
2022-11-22T12:16:06.325Z,3.7
2022-11-22T12:21:16.268Z,3.4
2022-11-22T12:27:05.908Z,3.4
2022-11-22T12:32:06.041Z,3.3
2022-11-22T12:37:05.942Z,3.4
2022-11-22T12:42:21.546Z,3.3
2022-11-22T12:48:05.890Z,3.4
2022-11-22T12:53:05.912Z,3.3
2022-11-22T12:58:05.940Z,3.4
2022-11-22T13:03:16.354Z,3.2
2022-11-22T13:09:05.796Z,3.3
2022-11-22T13:14:20.804Z,3.5
2022-11-22T13:20:06.028Z,3.3
2022-11-22T13:25:05.900Z,3.5
2022-11-22T13:30:16.237Z,3.5
2022-11-22T13:36:06.020Z,3.5
2022-11-22T13:41:05.923Z,3.9
2022-11-22T13:46:16.238Z,3.7
2022-11-22T13:51:16.354Z,3.8
2022-11-22T13:57:05.937Z,3.8
2022-11-22T14:02:16.070Z,3.7
2022-11-22T14:07:16.414Z,3.7
2022-11-22T14:13:05.993Z,3.7
2022-11-22T14:18:16.177Z,3.6
2022-11-22T14:23:16.300Z,3.8
2022-11-22T14:29:05.878Z,3.8
2022-11-22T14:34:05.920Z,3.8
2022-11-22T14:39:06.199Z,3.8
2022-11-22T14:44:15.975Z,3.7
2022-11-22T14:49:16.012Z,3.8
2022-11-22T14:54:16.200Z,3.9
2022-11-22T14:59:16.082Z,4
2022-11-22T15:09:17.685Z,3.9
2022-11-22T15:10:16.122Z,3.8
2022-11-22T15:57:18.286Z,4.2
2022-11-22T16:03:05.676Z,4.2
2022-11-22T16:08:05.849Z,4.3
2022-11-22T16:13:16.027Z,4.3
2022-11-22T16:18:16.047Z,4.4
2022-11-22T16:24:05.783Z,4.5
2022-11-22T16:29:05.919Z,4.4
2022-11-22T16:34:05.848Z,4.6
2022-11-22T16:39:05.851Z,4.6
2022-11-22T16:44:05.877Z,4.7
2022-11-22T16:49:16.083Z,4.7
2022-11-22T16:54:16.029Z,4.8
2022-11-22T17:06:05.763Z,4.7
2022-11-22T17:11:05.792Z,4.8
2022-11-22T17:16:15.979Z,4.9
2022-11-22T17:22:05.855Z,4.9
2022-11-22T17:27:15.993Z,4.9
2022-11-22T17:32:16.001Z,4.9
2022-11-22T17:37:16.199Z,5
2022-11-22T17:43:05.698Z,5
2022-11-22T17:48:15.984Z,5
2022-11-22T17:54:05.718Z,5
2022-11-22T17:59:05.865Z,5
2022-11-22T18:04:15.968Z,5.1
2022-11-22T18:10:05.850Z,5.3
2022-11-22T18:15:15.961Z,5.3
2022-11-22T18:20:15.987Z,5.4
2022-11-22T18:25:16.305Z,5.4
2022-11-22T18:31:05.728Z,5.3
2022-11-22T18:42:06.892Z,5.4
2022-11-22T18:47:16.144Z,5.4
2022-11-22T18:52:17.893Z,5.4
2022-11-22T18:58:05.807Z,5.4
2022-11-22T19:03:05.682Z,5.3
2022-11-22T19:08:05.701Z,5.4
2022-11-22T19:13:05.709Z,5.4
2022-11-22T19:18:16.055Z,5.5
2022-11-22T19:23:15.969Z,5.4
2022-11-22T19:28:16.038Z,5.5
2022-11-22T19:34:05.820Z,5.4
2022-11-22T19:39:05.734Z,5.4
2022-11-22T19:44:05.795Z,5.4
2022-11-22T19:49:06.256Z,5.4
2022-11-22T19:54:16.073Z,5.3
2022-11-22T19:59:15.977Z,5.3
2022-11-22T20:05:05.705Z,5.4
2022-11-22T20:10:16.118Z,5.2
2022-11-22T20:16:05.675Z,5.2
2022-11-22T20:21:22.081Z,5.3
2022-11-22T20:27:05.742Z,5.3
2022-11-22T20:32:15.971Z,5.4
2022-11-22T20:37:15.992Z,5.3
2022-11-22T20:43:05.848Z,5.4
2022-11-22T20:48:05.900Z,5.3
2022-11-22T20:53:16.015Z,5.4
2022-11-22T20:59:05.791Z,5.3
2022-11-22T21:04:05.680Z,5.3
2022-11-22T21:09:15.969Z,5.4
2022-11-22T21:14:16.087Z,5.1
2022-11-22T21:19:16.033Z,5.3
2022-11-22T21:25:06.787Z,5.2
2022-11-22T21:30:16.016Z,5.2
2022-11-22T21:35:15.934Z,5.2
2022-11-22T21:41:37.736Z,5.2
2022-11-22T21:46:16.104Z,5.2
2022-11-22T21:52:05.638Z,5.2
2022-11-22T21:57:05.657Z,5.2
2022-11-22T22:02:16.048Z,5.1
2022-11-22T22:08:05.709Z,5.2
2022-11-22T22:13:05.647Z,5.3
2022-11-22T22:18:05.898Z,5.1
2022-11-22T22:23:16.043Z,5.2
2022-11-22T22:29:05.659Z,5.3
2022-11-22T22:34:05.711Z,5.2
2022-11-22T22:39:15.950Z,5.3
2022-11-22T22:44:16.036Z,5.3
2022-11-22T22:50:05.789Z,5.3
2022-11-22T22:55:05.701Z,5.4
2022-11-22T23:00:15.975Z,5.2
2022-11-22T23:06:05.827Z,5.3
2022-11-22T23:11:15.906Z,5.3
2022-11-22T23:16:15.932Z,5.2
2022-11-22T23:22:05.808Z,5.3
2022-11-22T23:27:05.741Z,5.4
2022-11-22T23:32:15.912Z,5.3
2022-11-22T23:38:05.832Z,5.3
2022-11-22T23:43:15.897Z,5.2
2022-11-22T23:48:16.091Z,5.3
2022-11-22T23:54:05.768Z,5.3
2022-11-22T23:59:05.690Z,5.3
